Terminal Aerodrome Forecast
Issued by NWS

Home | Current Version | Previous Version | Text Only | Print | Product List | Glossary On
Versions: 1 2 3 4 5 6 7 8 9 10 11 12 13 14 15 16 17
000
FTUS45 KLKN 171854 AAA
TAFWMC
TAF AMD
KWMC 171854Z 1719/1818 VRB04KT P6SM BKN015
     FM172200 06006KT P6SM SCT020 BKN250
     FM180400 15006KT P6SM BKN040 OVC200
     FM181600 12008KT P6SM VCSH OVC030=

USA.gov is the U.S. government's official web portal to all federal, state and local government web resources and services.